Time;durP1;ratioP1;P1;durP2;ratioP2;P2;SDS_P1;SDS_P2;PMS_P1;PMS_P2;Temp;Humidity;BMP_temperature;BMP_pressure;BME280_temperature;BME280_humidity;BME280_pressure;Samples;Min_cycle;Max_cycle;Signal;HPM_P1;HPM_P2
2023/07/19 00:00:38;;;;;;;5.20;2.95;;;16.30;88.80;;;;;;4939797;28;89117;-85
2023/07/19 00:03:04;;;;;;;6.22;2.50;;;16.30;89.20;;;;;;4939973;28;91500;-84
2023/07/19 00:05:30;;;;;;;6.32;3.10;;;16.30;89.30;;;;;;4939498;28;91046;-84
2023/07/19 00:07:55;;;;;;;5.60;2.42;;;16.20;90.20;;;;;;4940391;28;88741;-85
2023/07/19 00:10:21;;;;;;;6.72;2.92;;;16.20;90.20;;;;;;4940921;28;89604;-85
2023/07/19 00:12:47;;;;;;;5.82;2.80;;;16.10;90.10;;;;;;4940822;28;90179;-84
2023/07/19 00:15:12;;;;;;;6.35;3.78;;;16.10;90.30;;;;;;4940238;28;90156;-84
2023/07/19 00:17:38;;;;;;;5.57;2.38;;;16.10;90.60;;;;;;4939345;28;87890;-85
2023/07/19 00:20:04;;;;;;;7.72;2.75;;;16.00;90.70;;;;;;4939013;28;88771;-86
2023/07/19 00:22:31;;;;;;;6.10;3.15;;;15.90;90.80;;;;;;4940212;28;90304;-83
2023/07/19 00:24:57;;;;;;;8.32;2.83;;;15.90;90.50;;;;;;4939930;28;91374;-85
2023/07/19 00:27:23;;;;;;;5.93;2.67;;;15.90;90.60;;;;;;4939185;28;88731;-84
2023/07/19 00:29:48;;;;;;;7.95;3.42;;;15.90;90.90;;;;;;4939663;28;89909;-84
2023/07/19 00:32:14;;;;;;;5.53;2.50;;;15.90;90.90;;;;;;4938109;28;92727;-85
2023/07/19 00:34:39;;;;;;;4.53;2.60;;;15.90;91.20;;;;;;4940190;28;91230;-86
2023/07/19 00:37:05;;;;;;;4.10;2.42;;;15.80;90.80;;;;;;4940136;28;87652;-85
2023/07/19 00:39:31;;;;;;;6.00;2.70;;;15.80;90.90;;;;;;4939140;28;90640;-84
2023/07/19 00:41:57;;;;;;;5.40;2.38;;;15.80;90.80;;;;;;4939835;28;92028;-85
2023/07/19 00:44:23;;;;;;;3.95;2.80;;;15.70;91.20;;;;;;4938064;28;90929;-86
2023/07/19 00:46:48;;;;;;;6.70;2.72;;;15.70;91.20;;;;;;4940293;28;87627;-84
2023/07/19 00:49:15;;;;;;;4.13;2.50;;;15.70;91.50;;;;;;4940191;28;89442;-85
2023/07/19 00:51:41;;;;;;;4.90;2.63;;;15.60;91.20;;;;;;4940096;28;91278;-85
2023/07/19 00:54:07;;;;;;;6.60;2.58;;;15.50;91.30;;;;;;4940560;28;91187;-86
2023/07/19 00:56:33;;;;;;;4.55;2.60;;;15.50;91.20;;;;;;4939713;28;88411;-85
2023/07/19 00:59:01;;;;;;;6.20;2.70;;;15.40;91.50;;;;;;4940833;28;88894;-87
2023/07/19 01:01:27;;;;;;;7.85;2.60;;;15.40;91.80;;;;;;4958119;28;91187;-84
2023/07/19 01:03:53;;;;;;;4.05;2.15;;;15.40;91.90;;;;;;4941034;28;90105;-84
2023/07/19 01:06:19;;;;;;;7.43;3.20;;;15.30;92.00;;;;;;4949234;28;88005;-84
2023/07/19 01:08:46;;;;;;;7.50;2.88;;;15.30;92.10;;;;;;4940522;28;90073;-84
2023/07/19 01:11:12;;;;;;;4.45;3.15;;;15.30;92.30;;;;;;4940724;28;91423;-85
2023/07/19 01:13:38;;;;;;;4.43;2.92;;;15.30;92.20;;;;;;4941585;28;91031;-84
2023/07/19 01:16:04;;;;;;;7.82;3.05;;;15.30;92.30;;;;;;4940515;28;87870;-84
2023/07/19 01:18:29;;;;;;;9.27;2.90;;;15.30;92.50;;;;;;4940466;28;88732;-85
2023/07/19 01:20:55;;;;;;;4.47;2.78;;;15.20;92.40;;;;;;4939839;28;92651;-85
2023/07/19 01:23:21;;;;;;;6.13;2.67;;;15.20;92.30;;;;;;4940113;28;91449;-84
2023/07/19 01:25:46;;;;;;;8.80;2.90;;;15.20;92.30;;;;;;4942461;28;87640;-85
2023/07/19 01:28:12;;;;;;;6.90;3.35;;;15.20;92.50;;;;;;4942723;28;90204;-84
2023/07/19 01:30:37;;;;;;;8.43;2.80;;;15.10;92.60;;;;;;4943811;28;91370;-84
2023/07/19 01:33:29;;;;;;;5.45;3.10;;;15.10;92.40;;;;;;4943753;28;90968;-84
2023/07/19 01:35:55;;;;;;;4.95;3.00;;;15.10;92.40;;;;;;4943133;28;87111;-84
2023/07/19 01:38:20;;;;;;;4.25;2.55;;;15.10;92.30;;;;;;4944198;28;88972;-84
2023/07/19 01:40:47;;;;;;;3.65;2.60;;;15.00;92.20;;;;;;4944291;28;90046;-84
2023/07/19 01:43:13;;;;;;;5.85;2.58;;;15.00;92.00;;;;;;4941231;28;89142;-85
2023/07/19 01:45:39;;;;;;;7.28;2.67;;;15.00;92.30;;;;;;4942734;28;88355;-84
2023/07/19 01:48:05;;;;;;;6.00;2.85;;;15.00;92.40;;;;;;4944343;28;90168;-84
2023/07/19 01:50:31;;;;;;;6.70;2.65;;;14.90;92.60;;;;;;4944827;28;91240;-83
2023/07/19 01:59:07;;;;;;;5.70;2.90;;;14.80;92.80;;;;;;4942971;28;87079;-96
2023/07/19 02:01:32;;;;;;;5.47;2.80;;;14.70;92.60;;;;;;4942313;28;89377;-96
2023/07/19 02:03:58;;;;;;;3.92;2.20;;;14.70;92.90;;;;;;4942364;28;89923;-96
2023/07/19 02:06:23;;;;;;;7.15;2.72;;;14.70;92.70;;;;;;4940817;28;87158;-96
2023/07/19 02:08:50;;;;;;;3.90;2.13;;;14.60;92.70;;;;;;4940322;28;89048;-96
2023/07/19 02:11:15;;;;;;;5.85;2.97;;;14.60;92.50;;;;;;4940474;28;90685;-96
2023/07/19 02:13:41;;;;;;;4.32;2.45;;;14.60;92.50;;;;;;4942054;28;90140;-95
2023/07/19 02:16:07;;;;;;;5.90;3.00;;;14.60;92.50;;;;;;4942651;28;87567;-96
2023/07/19 02:18:32;;;;;;;6.75;2.80;;;14.60;92.50;;;;;;4924448;28;87986;-96
2023/07/19 02:20:58;;;;;;;4.07;2.42;;;14.60;92.60;;;;;;4941054;28;90855;-96
2023/07/19 02:23:24;;;;;;;5.55;2.33;;;14.60;92.50;;;;;;4940326;28;88989;-96
2023/07/19 02:25:50;;;;;;;7.22;3.00;;;14.50;92.90;;;;;;4940303;28;87235;-96
2023/07/19 02:28:16;;;;;;;5.70;2.50;;;14.50;93.10;;;;;;4940679;28;95737;-96
2023/07/19 02:30:46;;;;;;;5.78;2.70;;;14.40;93.20;;;;;;4940084;28;90509;-96
2023/07/19 02:33:13;;;;;;;6.28;3.00;;;14.40;93.30;;;;;;4956921;28;90394;-96
2023/07/19 02:35:38;;;;;;;6.47;2.60;;;14.40;93.40;;;;;;4941525;28;88415;-96
2023/07/19 02:38:04;;;;;;;6.80;2.85;;;14.30;93.50;;;;;;4939248;28;88031;-96
2023/07/19 02:40:30;;;;;;;7.28;2.80;;;14.30;93.50;;;;;;4940290;28;89387;-96
2023/07/19 02:42:55;;;;;;;6.80;2.65;;;14.30;93.60;;;;;;4937415;28;90173;-96
2023/07/19 02:45:23;;;;;;;7.82;3.22;;;14.20;93.80;;;;;;4939551;28;87806;-96
2023/07/19 02:47:48;;;;;;;6.95;3.20;;;14.20;94.00;;;;;;4952666;28;88247;-96
2023/07/19 02:50:14;;;;;;;5.18;2.97;;;14.20;94.10;;;;;;4921194;28;89257;-96
2023/07/19 02:52:39;;;;;;;7.07;3.10;;;14.10;94.00;;;;;;4937869;28;88544;-96
2023/07/19 02:55:05;;;;;;;6.35;3.42;;;14.10;94.50;;;;;;4939247;28;87129;-96
2023/07/19 02:57:31;;;;;;;4.80;3.17;;;14.10;94.10;;;;;;4938760;28;88094;-96
2023/07/19 02:59:57;;;;;;;5.25;3.63;;;14.10;94.10;;;;;;4937715;28;91313;-96
2023/07/19 03:02:22;;;;;;;4.78;2.92;;;14.10;94.10;;;;;;4938106;28;91347;-96
2023/07/19 03:04:48;;;;;;;6.05;2.55;;;14.10;94.00;;;;;;4941057;28;87938;-96
2023/07/19 03:07:14;;;;;;;4.07;2.67;;;14.10;94.00;;;;;;4937112;28;89113;-96
2023/07/19 03:09:40;;;;;;;3.78;2.65;;;14.00;93.90;;;;;;4937698;28;89313;-96
2023/07/19 03:12:06;;;;;;;7.47;2.83;;;14.10;93.70;;;;;;4953934;28;90168;-96
2023/07/19 03:14:32;;;;;;;4.20;3.05;;;14.00;94.00;;;;;;4939273;28;88072;-96
2023/07/19 03:16:57;;;;;;;7.20;3.15;;;14.00;93.90;;;;;;4936760;28;89181;-96
2023/07/19 03:19:23;;;;;;;6.70;3.10;;;14.00;94.10;;;;;;4940765;28;89422;-96
2023/07/19 03:21:49;;;;;;;3.50;2.58;;;14.00;94.10;;;;;;4937430;28;90678;-96
2023/07/19 03:24:14;;;;;;;6.95;3.15;;;14.00;94.00;;;;;;4934554;28;89196;-96
2023/07/19 03:26:40;;;;;;;6.78;2.75;;;14.00;94.10;;;;;;4932626;28;88174;-96
2023/07/19 03:29:06;;;;;;;7.85;3.47;;;14.00;94.10;;;;;;4936630;28;91062;-96
2023/07/19 03:31:31;;;;;;;6.88;2.88;;;13.90;94.10;;;;;;4937200;28;89297;-95
2023/07/19 03:33:57;;;;;;;5.72;3.10;;;13.90;94.00;;;;;;4936656;28;87541;-96
2023/07/19 03:36:23;;;;;;;6.30;3.03;;;13.90;94.10;;;;;;4937156;28;88540;-95
2023/07/19 03:38:49;;;;;;;6.78;2.97;;;13.90;94.30;;;;;;4934881;28;90875;-96
2023/07/19 03:41:14;;;;;;;5.70;3.50;;;13.90;94.10;;;;;;4935780;28;90001;-95
2023/07/19 03:43:40;;;;;;;5.63;3.15;;;13.90;94.10;;;;;;4936231;28;87963;-96
2023/07/19 03:46:07;;;;;;;4.75;3.50;;;13.90;94.20;;;;;;4936914;28;89399;-96
2023/07/19 03:48:34;;;;;;;3.63;2.60;;;13.90;94.10;;;;;;4935949;28;91660;-95
2023/07/19 03:51:01;;;;;;;6.72;3.28;;;13.90;94.50;;;;;;4934700;28;91211;-96
2023/07/19 03:53:28;;;;;;;5.15;3.55;;;13.80;94.30;;;;;;4934055;28;87676;-96
2023/07/19 03:59:05;;;;;;;9.07;3.38;;;13.80;94.60;;;;;;5028491;22;87782;-95
2023/07/19 04:01:31;;;;;;;10.10;4.00;;;13.80;95.00;;;;;;4931754;28;90222;-96
2023/07/19 04:04:01;;;;;;;8.60;3.83;;;13.80;95.10;;;;;;4935506;28;87257;-94
2023/07/19 04:06:27;;;;;;;8.43;3.38;;;13.80;95.00;;;;;;4927839;28;88450;-95
2023/07/19 04:08:53;;;;;;;8.07;4.18;;;13.80;95.10;;;;;;4929587;28;90842;-96
2023/07/19 04:11:18;;;;;;;10.02;4.30;;;13.80;95.10;;;;;;4926674;28;89315;-96
2023/07/19 04:13:44;;;;;;;8.68;3.85;;;13.80;95.30;;;;;;4929705;28;88513;-96
2023/07/19 04:16:10;;;;;;;8.70;4.20;;;13.90;95.30;;;;;;4927640;28;87938;-96
2023/07/19 04:18:35;;;;;;;6.78;3.50;;;13.80;95.50;;;;;;4926366;28;89591;-95
2023/07/19 04:21:02;;;;;;;5.50;3.22;;;13.90;95.20;;;;;;4934880;28;89789;-96
2023/07/19 04:23:28;;;;;;;6.05;3.80;;;13.80;95.20;;;;;;4932207;28;87652;-96
2023/07/19 04:25:54;;;;;;;6.75;3.70;;;13.90;95.10;;;;;;4934748;28;88788;-96
2023/07/19 04:28:19;;;;;;;7.50;3.70;;;13.90;95.10;;;;;;4933859;28;90273;-95
2023/07/19 04:30:45;;;;;;;7.03;3.17;;;13.90;95.00;;;;;;4933528;28;90013;-96
2023/07/19 04:33:11;;;;;;;14.13;3.70;;;14.00;95.00;;;;;;4939782;28;87958;-96
2023/07/19 04:35:37;;;;;;;5.15;3.70;;;14.00;95.00;;;;;;4933082;28;88228;-96
2023/07/19 04:38:07;;;;;;;5.88;3.60;;;14.00;95.10;;;;;;4937822;28;89799;-96
2023/07/19 04:40:33;;;;;;;8.05;4.00;;;14.10;95.20;;;;;;4938764;28;89829;-96
2023/07/19 04:42:59;;;;;;;8.20;3.60;;;14.10;95.00;;;;;;4938593;28;87284;-96
2023/07/19 04:45:25;;;;;;;5.85;3.47;;;14.10;95.00;;;;;;4940560;28;89243;-96
2023/07/19 04:47:51;;;;;;;8.05;3.60;;;14.20;95.00;;;;;;4932052;28;90362;-96
2023/07/19 04:50:17;;;;;;;6.72;4.25;;;14.20;95.10;;;;;;4942006;28;88728;-96
2023/07/19 04:52:45;;;;;;;8.88;3.58;;;14.20;95.10;;;;;;4942218;28;87696;-96
2023/07/19 04:55:12;;;;;;;10.93;4.30;;;14.30;95.10;;;;;;4937188;28;88778;-96
2023/07/19 04:57:37;;;;;;;18.90;5.00;;;14.30;95.20;;;;;;4941236;28;89174;-96
2023/07/19 05:00:10;;;;;;;12.07;4.50;;;14.40;95.00;;;;;;4928428;28;90031;-96
2023/07/19 05:02:38;;;;;;;11.15;4.70;;;14.40;94.90;;;;;;4955621;28;88590;-96
2023/07/19 05:05:05;;;;;;;8.93;4.18;;;14.40;95.00;;;;;;4938502;28;87708;-96
2023/07/19 05:07:34;;;;;;;9.60;4.78;;;14.50;94.80;;;;;;4939956;28;90145;-96
2023/07/19 05:10:00;;;;;;;11.18;4.45;;;14.60;95.10;;;;;;4941880;28;90018;-96
2023/07/19 05:12:26;;;;;;;8.02;4.57;;;14.60;95.20;;;;;;4929867;28;87661;-96
2023/07/19 05:14:51;;;;;;;9.40;5.30;;;14.70;94.90;;;;;;4938000;28;88050;-96
2023/07/19 05:17:17;;;;;;;11.85;4.75;;;14.80;95.10;;;;;;4932383;28;91364;-96
2023/07/19 05:19:43;;;;;;;9.00;4.75;;;14.80;95.00;;;;;;4940455;28;89082;-96
2023/07/19 05:22:10;;;;;;;12.10;5.22;;;14.90;94.90;;;;;;4928930;28;87422;-96
2023/07/19 05:24:36;;;;;;;11.77;4.95;;;15.00;94.80;;;;;;4929144;28;87783;-96
2023/07/19 05:27:02;;;;;;;11.20;5.47;;;15.00;94.60;;;;;;4912067;28;90132;-96
2023/07/19 05:29:29;;;;;;;10.88;5.03;;;15.10;94.60;;;;;;4941960;28;89709;-96
2023/07/19 05:31:55;;;;;;;11.93;5.22;;;15.20;94.70;;;;;;4934980;28;87670;-96
2023/07/19 05:34:22;;;;;;;13.90;5.47;;;15.30;94.50;;;;;;4940391;28;87193;-96
2023/07/19 05:36:47;;;;;;;7.30;4.70;;;15.30;94.50;;;;;;4939267;28;89799;-96
2023/07/19 05:39:13;;;;;;;11.82;4.85;;;15.30;94.50;;;;;;4941243;28;90212;-96
2023/07/19 05:41:39;;;;;;;12.40;4.95;;;15.40;94.60;;;;;;4942656;28;87211;-96
2023/07/19 05:44:05;;;;;;;14.50;6.20;;;15.50;94.60;;;;;;4944410;28;88341;-96
2023/07/19 05:46:33;;;;;;;12.57;5.00;;;15.60;94.70;;;;;;4943865;28;90396;-96
2023/07/19 05:48:58;;;;;;;8.15;4.97;;;15.60;94.30;;;;;;4932016;28;88743;-96
2023/07/19 05:51:24;;;;;;;9.88;5.20;;;15.70;94.30;;;;;;4929335;28;88678;-96
2023/07/19 05:53:49;;;;;;;12.80;6.03;;;15.80;94.20;;;;;;4927777;28;89399;-95
2023/07/19 05:56:15;;;;;;;12.40;5.82;;;15.90;94.20;;;;;;4929174;28;89751;-96
2023/07/19 05:58:40;;;;;;;9.95;5.25;;;16.00;94.10;;;;;;4935344;28;89150;-96
2023/07/19 06:01:09;;;;;;;11.77;5.60;;;16.10;93.80;;;;;;4929738;28;87558;-94
2023/07/19 06:03:37;;;;;;;9.27;5.78;;;16.20;93.60;;;;;;4926433;28;89354;-95
2023/07/19 06:06:03;;;;;;;11.85;5.78;;;16.30;93.30;;;;;;4926292;28;90557;-96
2023/07/19 06:08:29;;;;;;;11.00;5.15;;;16.40;93.90;;;;;;4925268;28;88879;-94
2023/07/19 06:10:55;;;;;;;11.48;5.80;;;16.50;93.40;;;;;;4927020;28;87756;-95
2023/07/19 06:13:20;;;;;;;10.65;5.88;;;16.60;93.20;;;;;;4925965;28;88864;-96
2023/07/19 06:15:46;;;;;;;10.52;5.68;;;16.70;93.30;;;;;;4925876;28;90341;-95
2023/07/19 06:18:12;;;;;;;12.07;5.75;;;16.80;93.20;;;;;;4927688;28;90274;-95
2023/07/19 06:20:37;;;;;;;9.80;4.93;;;16.80;93.00;;;;;;4929149;28;87455;-93
2023/07/19 06:23:03;;;;;;;13.82;5.30;;;16.90;92.80;;;;;;4925874;28;88629;-94
2023/07/19 06:25:29;;;;;;;7.93;4.50;;;16.90;92.60;;;;;;4929390;28;89220;-94
2023/07/19 06:27:54;;;;;;;9.82;4.85;;;17.00;92.60;;;;;;4927442;28;90250;-94
2023/07/19 06:30:21;;;;;;;10.15;4.63;;;17.10;92.30;;;;;;4925620;28;87140;-96
2023/07/19 06:32:46;;;;;;;8.02;4.75;;;17.20;91.90;;;;;;4926126;28;88861;-96
2023/07/19 06:35:12;;;;;;;11.40;5.13;;;17.30;91.50;;;;;;4926666;28;90734;-94
2023/07/19 06:37:37;;;;;;;7.82;3.90;;;17.50;91.60;;;;;;4927952;28;90786;-94
2023/07/19 06:40:04;;;;;;;14.07;5.38;;;17.50;91.50;;;;;;4930135;28;88774;-94
2023/07/19 06:42:32;;;;;;;9.68;4.80;;;17.60;91.10;;;;;;4924736;28;89167;-95
2023/07/19 06:44:58;;;;;;;9.43;4.43;;;17.80;91.20;;;;;;4931355;28;90432;-92
2023/07/19 06:47:26;;;;;;;8.35;4.68;;;17.80;90.50;;;;;;4926699;28;90278;-94
2023/07/19 06:49:52;;;;;;;10.70;4.50;;;17.90;90.50;;;;;;4928245;28;88112;-92
2023/07/19 06:52:17;;;;;;;10.40;4.22;;;18.00;90.70;;;;;;4928938;28;88191;-93
2023/07/19 06:54:43;;;;;;;7.80;3.42;;;18.10;90.30;;;;;;4925225;28;89324;-93
2023/07/19 06:57:09;;;;;;;11.48;3.85;;;18.10;90.20;;;;;;4943392;28;89067;-91
2023/07/19 06:59:35;;;;;;;6.18;3.50;;;18.20;89.80;;;;;;4927464;28;87817;-94
2023/07/19 07:02:00;;;;;;;9.13;3.63;;;18.30;90.10;;;;;;4926858;28;90051;-96
2023/07/19 07:04:29;;;;;;;9.77;3.55;;;18.40;88.50;;;;;;4928721;28;91495;-93
2023/07/19 07:06:54;;;;;;;10.20;3.15;;;18.40;89.00;;;;;;4938185;28;89781;-94
2023/07/19 07:09:20;;;;;;;9.38;3.72;;;18.50;88.60;;;;;;4930414;28;88097;-95
2023/07/19 07:11:45;;;;;;;10.63;3.80;;;18.60;88.40;;;;;;4929086;28;89535;-94
2023/07/19 07:14:11;;;;;;;9.85;3.40;;;18.70;87.50;;;;;;4931352;28;89761;-96
2023/07/19 07:16:36;;;;;;;8.00;3.40;;;18.70;85.80;;;;;;4929333;28;91150;-95
2023/07/19 07:19:02;;;;;;;12.55;3.72;;;18.80;86.20;;;;;;4923949;28;87744;-94
2023/07/19 07:21:28;;;;;;;7.72;3.10;;;18.80;85.10;;;;;;4926331;28;88874;-95
2023/07/19 07:23:53;;;;;;;6.20;3.28;;;18.80;85.00;;;;;;4923559;28;90421;-96
2023/07/19 07:26:19;;;;;;;4.85;2.83;;;18.80;85.50;;;;;;4922446;28;90139;-95
2023/07/19 07:28:45;;;;;;;8.32;3.03;;;18.80;85.30;;;;;;4926041;28;89023;-95
2023/07/19 07:31:11;;;;;;;9.23;3.38;;;18.90;85.30;;;;;;4926843;28;89648;-95
2023/07/19 07:33:38;;;;;;;9.98;3.42;;;19.00;85.30;;;;;;4928155;28;90301;-95
2023/07/19 07:36:04;;;;;;;7.75;3.25;;;19.10;85.20;;;;;;4926077;28;90139;-94
2023/07/19 07:38:29;;;;;;;9.18;3.42;;;19.10;85.00;;;;;;4925629;28;87593;-95
2023/07/19 07:41:05;;;;;;;8.95;3.78;;;19.20;85.00;;;;;;4929850;28;89320;-94
2023/07/19 07:43:30;;;;;;;8.52;3.70;;;19.30;85.60;;;;;;4929310;28;90708;-95
2023/07/19 07:45:56;;;;;;;9.77;3.28;;;19.30;84.40;;;;;;4926286;28;89053;-95
2023/07/19 07:48:22;;;;;;;12.07;3.50;;;19.40;84.30;;;;;;4929427;28;87736;-95
2023/07/19 07:50:52;;;;;;;7.57;3.90;;;19.40;83.20;;;;;;4929216;28;88168;-95
2023/07/19 07:53:21;;;;;;;9.63;2.90;;;19.40;82.30;;;;;;4947818;28;91318;-95
2023/07/19 07:55:50;;;;;;;10.85;3.40;;;19.50;82.60;;;;;;4928624;28;90404;-96
2023/07/19 07:58:16;;;;;;;9.73;3.22;;;19.50;82.20;;;;;;4932681;28;89318;-93
2023/07/19 08:00:44;;;;;;;11.65;3.05;;;19.50;81.80;;;;;;4933311;28;87843;-92
2023/07/19 08:03:12;;;;;;;7.45;2.90;;;19.60;81.90;;;;;;4958258;28;89303;-95
2023/07/19 08:05:38;;;;;;;12.73;2.90;;;19.60;81.30;;;;;;4961118;28;90485;-95
2023/07/19 08:08:06;;;;;;;8.85;3.10;;;19.70;80.60;;;;;;4938917;28;87371;-94
2023/07/19 08:10:40;;;;;;;8.68;2.80;;;19.80;81.50;;;;;;4936064;28;88383;-94
2023/07/19 08:13:08;;;;;;;10.75;2.80;;;19.90;82.00;;;;;;4937837;28;87563;-95
2023/07/19 08:15:35;;;;;;;4.72;2.83;;;20.00;79.50;;;;;;4932151;28;89455;-94
2023/07/19 08:18:00;;;;;;;10.45;2.67;;;20.10;80.40;;;;;;4933105;28;88543;-95
2023/07/19 08:20:26;;;;;;;11.15;2.85;;;20.10;78.60;;;;;;4934895;28;89350;-95
2023/07/19 08:22:52;;;;;;;10.88;2.92;;;20.20;78.50;;;;;;4937192;28;90724;-95
2023/07/19 08:25:21;;;;;;;7.60;2.70;;;20.30;79.20;;;;;;4934775;28;90088;-95
2023/07/19 08:27:51;;;;;;;9.65;2.53;;;20.40;78.20;;;;;;4935279;28;87802;-95
2023/07/19 08:30:18;;;;;;;7.72;2.45;;;20.50;77.80;;;;;;4928276;28;88191;-95
2023/07/19 08:32:46;;;;;;;7.65;2.53;;;20.60;75.80;;;;;;4936889;28;89521;-95
2023/07/19 08:35:15;;;;;;;9.25;2.28;;;20.60;77.70;;;;;;4942491;28;90092;-94
2023/07/19 08:37:45;;;;;;;8.95;2.10;;;20.80;75.90;;;;;;4937556;28;87953;-95
2023/07/19 08:40:12;;;;;;;13.50;2.75;;;21.00;74.30;;;;;;4936006;28;88958;-95
2023/07/19 08:42:39;;;;;;;6.90;2.22;;;21.20;73.90;;;;;;4935167;28;91374;-95
2023/07/19 08:45:08;;;;;;;6.97;1.83;;;21.40;73.20;;;;;;4937595;28;91074;-95
2023/07/19 08:47:35;;;;;;;4.80;1.85;;;21.60;73.50;;;;;;4919093;28;87728;-95
2023/07/19 08:50:06;;;;;;;10.65;1.77;;;21.70;71.90;;;;;;4960774;28;89221;-95
2023/07/19 08:52:34;;;;;;;3.83;1.40;;;21.90;70.70;;;;;;4919899;28;90384;-94
2023/07/19 08:55:01;;;;;;;5.78;1.73;;;22.10;71.20;;;;;;4933126;28;90396;-95
2023/07/19 08:57:28;;;;;;;6.57;1.60;;;22.20;69.50;;;;;;4933588;28;87936;-94
2023/07/19 09:00:04;;;;;;;5.68;1.63;;;22.40;68.00;;;;;;4949555;28;87869;-94
2023/07/19 09:02:30;;;;;;;4.18;1.38;;;22.50;66.80;;;;;;4934701;28;90583;-94
2023/07/19 09:05:09;;;;;;;5.53;1.20;;;22.60;66.00;;;;;;4931847;28;89213;-94
2023/07/19 09:07:37;;;;;;;4.93;1.80;;;22.60;66.50;;;;;;4932515;28;88278;-95
2023/07/19 09:10:06;;;;;;;5.50;1.50;;;22.70;65.90;;;;;;4952869;28;88018;-94
2023/07/19 09:12:41;;;;;;;5.82;1.52;;;22.70;64.30;;;;;;4950517;28;88912;-94
2023/07/19 09:15:12;;;;;;;4.82;1.40;;;22.80;65.50;;;;;;4934255;28;90492;-95
2023/07/19 09:17:44;;;;;;;4.60;1.30;;;22.90;63.90;;;;;;4934366;28;87694;-94
2023/07/19 09:20:11;;;;;;;5.43;1.30;;;23.00;63.40;;;;;;4934332;28;89569;-96
2023/07/19 09:22:37;;;;;;;4.20;1.48;;;23.00;62.10;;;;;;4934911;28;90473;-96
2023/07/19 09:25:05;;;;;;;4.43;1.10;;;23.10;61.10;;;;;;4934166;28;90564;-94
2023/07/19 09:27:32;;;;;;;4.25;1.50;;;23.10;62.80;;;;;;4953375;28;87605;-95
2023/07/19 09:30:01;;;;;;;3.90;1.10;;;23.20;61.70;;;;;;4956439;28;87946;-95
2023/07/19 09:32:26;;;;;;;3.97;1.10;;;23.30;60.40;;;;;;4934980;28;88905;-94
2023/07/19 09:34:57;;;;;;;3.20;0.95;;;23.30;59.60;;;;;;4936103;28;89926;-94
2023/07/19 09:37:24;;;;;;;3.92;1.13;;;23.30;60.70;;;;;;4932541;28;87823;-94
2023/07/19 09:39:51;;;;;;;3.80;1.40;;;23.40;60.30;;;;;;4932600;28;88270;-94
2023/07/19 09:42:19;;;;;;;5.70;1.77;;;23.50;59.90;;;;;;4934044;28;90395;-95
2023/07/19 09:44:49;;;;;;;4.95;1.30;;;23.50;59.80;;;;;;4936521;28;89274;-94
2023/07/19 09:47:15;;;;;;;4.35;1.23;;;23.50;59.80;;;;;;4939776;28;88357;-95
2023/07/19 09:49:42;;;;;;;11.43;1.85;;;23.50;60.20;;;;;;4926470;28;89239;-95
2023/07/19 09:52:12;;;;;;;4.32;1.20;;;23.60;60.30;;;;;;4933456;28;89361;-95
2023/07/19 09:54:39;;;;;;;7.07;1.40;;;23.70;61.50;;;;;;4932588;28;88755;-95
2023/07/19 09:57:05;;;;;;;6.40;1.40;;;23.60;59.10;;;;;;4936986;28;88714;-94
2023/07/19 09:59:39;;;;;;;8.35;1.60;;;23.60;60.00;;;;;;4924956;28;89745;-96
2023/07/19 10:02:05;;;;;;;4.85;1.23;;;23.70;61.20;;;;;;4946977;28;88384;-94
2023/07/19 10:04:37;;;;;;;3.22;1.40;;;23.80;60.80;;;;;;4928426;28;88904;-92
2023/07/19 10:07:04;;;;;;;3.90;1.00;;;23.80;57.60;;;;;;4927437;28;87784;-91
2023/07/19 10:09:31;;;;;;;6.68;1.25;;;23.80;56.50;;;;;;4934640;28;89617;-92
2023/07/19 10:12:10;;;;;;;6.50;1.05;;;23.80;57.20;;;;;;4933395;28;89206;-92
2023/07/19 10:14:36;;;;;;;3.97;1.05;;;23.80;56.90;;;;;;4955305;28;87786;-93
2023/07/19 10:17:05;;;;;;;3.88;1.17;;;23.80;55.90;;;;;;4957907;28;87401;-91
2023/07/19 10:19:30;;;;;;;5.50;1.75;;;23.90;55.40;;;;;;4952019;28;87548;-90
2023/07/19 10:22:05;;;;;;;13.90;1.40;;;23.90;54.90;;;;;;4957383;28;89048;-93
2023/07/19 10:24:37;;;;;;;3.75;1.10;;;24.00;55.80;;;;;;4936168;28;89818;-92
2023/07/19 10:27:24;;;;;;;4.55;0.85;;;24.10;54.60;;;;;;4952425;28;87444;-94
2023/07/19 10:29:50;;;;;;;2.75;1.05;;;24.30;54.50;;;;;;4949948;28;89233;-93
2023/07/19 10:32:15;;;;;;;4.28;1.00;;;24.50;54.80;;;;;;4933581;28;90151;-89
2023/07/19 10:34:45;;;;;;;5.13;1.23;;;24.80;53.00;;;;;;4928025;28;90144;-90
2023/07/19 10:37:10;;;;;;;3.10;1.38;;;24.90;53.70;;;;;;4924610;28;87918;-90
2023/07/19 10:39:36;;;;;;;4.43;1.30;;;25.00;54.00;;;;;;4926135;28;89905;-89
2023/07/19 10:42:01;;;;;;;2.83;1.10;;;25.10;53.90;;;;;;4924329;28;90696;-89
2023/07/19 10:44:27;;;;;;;5.28;1.45;;;25.30;55.00;;;;;;4927258;28;90296;-88
2023/07/19 10:46:58;;;;;;;5.75;1.05;;;25.50;53.70;;;;;;4925035;28;88552;-89
2023/07/19 10:49:23;;;;;;;6.38;1.70;;;25.60;53.60;;;;;;4924465;28;89058;-90
2023/07/19 10:51:57;;;;;;;7.35;1.75;;;25.50;52.30;;;;;;4925183;28;90336;-90
2023/07/19 10:54:23;;;;;;;8.73;1.30;;;25.40;53.10;;;;;;4925553;28;89896;-91
2023/07/19 10:56:52;;;;;;;5.97;1.60;;;25.30;53.40;;;;;;4948328;28;87654;-91
2023/07/19 10:59:20;;;;;;;7.13;1.42;;;25.40;53.40;;;;;;4922777;28;89379;-90
2023/07/19 11:01:49;;;;;;;4.53;1.50;;;25.40;53.70;;;;;;4926577;28;89510;-90
2023/07/19 11:04:18;;;;;;;7.45;1.35;;;25.50;53.10;;;;;;4927834;28;89931;-89
2023/07/19 11:06:55;;;;;;;7.18;1.60;;;25.50;53.30;;;;;;4948006;28;87497;-90
2023/07/19 11:09:24;;;;;;;8.32;1.75;;;25.30;52.50;;;;;;4924214;28;89159;-91
2023/07/19 11:11:50;;;;;;;8.75;1.80;;;25.10;53.80;;;;;;4931570;28;89208;-91
2023/07/19 11:14:32;;;;;;;5.78;1.30;;;25.20;54.50;;;;;;4927875;28;91273;-92
2023/07/19 11:16:59;;;;;;;4.40;0.80;;;25.10;53.50;;;;;;4918867;28;87930;-91
2023/07/19 11:19:40;;;;;;;5.80;1.13;;;25.00;53.40;;;;;;4948815;28;88035;-93
2023/07/19 11:22:07;;;;;;;15.73;1.40;;;25.00;53.80;;;;;;4934875;28;90059;-92
2023/07/19 11:24:41;;;;;;;7.80;1.10;;;24.90;52.40;;;;;;4934391;28;90661;-92
2023/07/19 11:27:08;;;;;;;3.05;1.13;;;24.80;52.70;;;;;;4951256;28;88538;-92
2023/07/19 11:29:34;;;;;;;7.03;1.10;;;24.80;53.40;;;;;;4930249;28;88690;-92
2023/07/19 11:32:20;;;;;;;5.32;0.93;;;24.80;52.00;;;;;;4933216;28;91118;-92
2023/07/19 11:34:46;;;;;;;3.85;0.88;;;24.70;52.40;;;;;;4934867;28;90675;-92
2023/07/19 11:37:28;;;;;;;4.15;1.10;;;24.80;52.30;;;;;;4936089;28;88531;-92
2023/07/19 11:39:57;;;;;;;2.97;0.82;;;24.80;53.10;;;;;;4937391;28;88121;-92
2023/07/19 11:42:46;;;;;;;7.25;0.93;;;24.90;52.80;;;;;;4937074;28;90142;-92
2023/07/19 11:45:17;;;;;;;1.05;0.50;;;25.10;54.90;;;;;;4929430;28;89159;-92
2023/07/19 11:47:44;;;;;;;2.03;0.75;;;25.40;54.70;;;;;;4946777;28;88247;-93
2023/07/19 11:50:11;;;;;;;1.75;0.63;;;25.60;51.40;;;;;;4926710;28;89397;-92
2023/07/19 11:52:47;;;;;;;2.55;0.90;;;25.50;51.80;;;;;;4927772;28;91766;-92
2023/07/19 11:55:14;;;;;;;4.18;0.70;;;25.60;52.00;;;;;;4923308;28;89483;-92
2023/07/19 11:57:41;;;;;;;3.15;0.75;;;25.80;53.10;;;;;;4926648;28;87759;-92
2023/07/19 12:00:08;;;;;;;3.47;0.80;;;26.20;51.10;;;;;;4930226;28;88154;-93
2023/07/19 12:02:35;;;;;;;1.30;0.68;;;26.20;49.70;;;;;;4929014;28;92285;-92
2023/07/19 12:05:03;;;;;;;2.00;0.77;;;26.40;51.30;;;;;;4927959;28;90355;-93
2023/07/19 12:07:29;;;;;;;3.28;0.90;;;26.50;49.50;;;;;;4928437;28;87799;-93
2023/07/19 12:09:55;;;;;;;2.75;0.80;;;26.50;49.30;;;;;;4948887;28;88054;-91
2023/07/19 12:12:21;;;;;;;4.90;0.52;;;26.70;50.30;;;;;;4939615;28;89374;-92
2023/07/19 12:14:46;;;;;;;1.98;0.57;;;26.80;52.30;;;;;;4923327;28;90363;-94
2023/07/19 12:17:12;;;;;;;2.70;0.60;;;27.00;50.50;;;;;;4920764;28;87143;-93
2023/07/19 12:19:37;;;;;;;6.55;0.77;;;27.10;51.50;;;;;;4930715;28;88573;-92
2023/07/19 12:22:04;;;;;;;1.55;0.47;;;27.30;49.60;;;;;;4921959;28;90464;-92
2023/07/19 12:24:30;;;;;;;1.33;0.50;;;27.30;49.20;;;;;;4921026;28;88801;-92
2023/07/19 12:26:55;;;;;;;2.15;0.40;;;27.00;48.90;;;;;;4925839;28;89339;-94
2023/07/19 12:29:21;;;;;;;1.83;0.60;;;26.70;50.10;;;;;;4925706;28;89544;-94
2023/07/19 12:31:47;;;;;;;2.75;0.80;;;26.50;50.50;;;;;;4926043;28;89900;-93
2023/07/19 12:34:14;;;;;;;2.15;0.45;;;26.20;51.90;;;;;;4926717;28;87875;-93
2023/07/19 12:36:40;;;;;;;2.92;0.60;;;26.00;52.60;;;;;;4911173;28;87271;-93
2023/07/19 12:39:08;;;;;;;3.10;0.70;;;25.70;53.90;;;;;;4924015;28;89585;-92
2023/07/19 12:41:34;;;;;;;4.10;0.73;;;25.30;56.10;;;;;;4928177;28;90446;-93
2023/07/19 12:43:59;;;;;;;3.97;0.50;;;25.00;57.30;;;;;;4930479;28;88879;-94
2023/07/19 12:46:25;;;;;;;3.10;0.47;;;24.70;58.40;;;;;;4928384;28;87161;-92
2023/07/19 12:48:51;;;;;;;3.22;0.88;;;24.40;59.90;;;;;;4929734;28;89659;-93
2023/07/19 12:51:19;;;;;;;3.35;0.55;;;24.20;61.00;;;;;;4929538;28;89633;-93
2023/07/19 12:53:44;;;;;;;5.25;0.68;;;24.00;62.10;;;;;;4928976;28;91126;-96